Time;durP1;ratioP1;P1;durP2;ratioP2;P2;SDS_P1;SDS_P2;PMS_P1;PMS_P2;Temp;Humidity;BMP_temperature;BMP_pressure;BME280_temperature;BME280_humidity;BME280_pressure;Samples;Min_cycle;Max_cycle;Signal;HPM_P1;HPM_P2
2023/08/21 00:01:30;;;;;;;9.48;5.82;;;;;;;23.33;66.08;94985.19;5090644;28;20232;-42
2023/08/21 00:03:57;;;;;;;6.75;5.10;;;;;;;23.32;66.19;94980.19;5090716;28;20197;-42
2023/08/21 00:06:24;;;;;;;7.22;5.85;;;;;;;23.29;66.29;94981.41;5090744;28;20193;-44
2023/08/21 00:08:51;;;;;;;7.88;4.82;;;;;;;23.27;66.56;94978.19;5090589;28;20615;-44
2023/08/21 00:11:17;;;;;;;6.95;5.03;;;;;;;23.25;66.68;94980.22;5090502;28;20197;-43
2023/08/21 00:13:48;;;;;;;8.25;5.40;;;;;;;23.22;66.95;94978.81;5090541;28;20194;-43
2023/08/21 00:16:15;;;;;;;8.38;5.50;;;;;;;23.19;67.14;94981.88;5089966;28;20273;-43
2023/08/21 00:18:41;;;;;;;8.35;5.28;;;;;;;23.20;67.55;94982.66;5090282;28;20595;-43
2023/08/21 00:21:08;;;;;;;6.18;5.63;;;;;;;23.19;67.90;94986.28;5090254;28;20577;-44
2023/08/21 00:23:35;;;;;;;10.07;5.95;;;;;;;23.20;68.13;94986.06;5090242;28;20189;-43
2023/08/21 00:26:02;;;;;;;9.88;5.60;;;;;;;23.15;68.07;94978.06;5091356;28;20205;-44
2023/08/21 00:28:32;;;;;;;8.32;5.93;;;;;;;23.17;68.32;94975.25;5090662;28;20189;-45
2023/08/21 00:31:02;;;;;;;9.45;5.00;;;;;;;23.12;68.31;94978.47;5090333;28;20237;-41
2023/08/21 00:33:29;;;;;;;9.93;5.60;;;;;;;23.10;68.20;94985.72;5090338;28;20273;-43
2023/08/21 00:35:56;;;;;;;6.00;5.40;;;;;;;23.07;68.19;94977.50;5090164;28;20239;-43
2023/08/21 00:38:23;;;;;;;14.45;5.78;;;;;;;23.06;68.42;94981.09;5090384;28;20196;-43
2023/08/21 00:40:50;;;;;;;9.43;6.07;;;;;;;23.03;68.40;94984.94;5089789;28;20647;-42
2023/08/21 00:43:17;;;;;;;11.70;5.80;;;;;;;23.00;68.60;94988.75;5089896;28;20247;-44
2023/08/21 00:45:46;;;;;;;8.05;5.55;;;;;;;22.97;68.84;94986.59;5089954;28;20573;-43
2023/08/21 00:48:15;;;;;;;10.30;5.93;;;;;;;22.95;68.97;94983.38;5090019;28;20197;-43
2023/08/21 00:50:42;;;;;;;8.82;5.40;;;;;;;22.94;69.02;94988.81;5090025;28;20264;-42
2023/08/21 00:53:09;;;;;;;8.13;5.05;;;;;;;22.91;68.70;94992.63;5089850;28;20239;-43
2023/08/21 00:55:36;;;;;;;9.20;5.53;;;;;;;22.88;69.15;94992.97;5089896;28;20236;-45
2023/08/21 00:58:04;;;;;;;8.32;5.55;;;;;;;22.86;69.11;94994.22;5089611;28;20197;-43
2023/08/21 01:00:31;;;;;;;6.97;5.15;;;;;;;22.82;69.49;94986.00;5089506;28;20566;-43
2023/08/21 01:02:58;;;;;;;12.52;6.07;;;;;;;22.79;69.44;94996.84;5089770;28;20201;-43
2023/08/21 01:05:26;;;;;;;6.15;5.55;;;;;;;22.72;69.91;94988.25;5089284;28;20262;-44
2023/08/21 01:07:58;;;;;;;8.02;5.38;;;;;;;22.69;70.43;94992.06;5089601;28;20209;-44
2023/08/21 01:10:34;;;;;;;7.82;5.32;;;;;;;22.67;70.37;94988.88;5089584;28;20273;-42
2023/08/21 01:13:09;;;;;;;7.40;5.60;;;;;;;22.68;70.08;95000.91;5089634;28;20194;-44
2023/08/21 01:15:37;;;;;;;6.75;5.47;;;;;;;22.65;70.00;94993.47;5089313;28;20199;-43
2023/08/21 01:18:05;;;;;;;8.88;5.93;;;;;;;22.64;70.02;94989.28;5089633;28;20185;-41
2023/08/21 01:20:33;;;;;;;5.80;5.13;;;;;;;22.52;69.96;94975.25;5089386;28;20197;-43
2023/08/21 01:23:05;;;;;;;6.90;5.25;;;;;;;22.60;70.01;94988.06;5089462;28;20225;-43
2023/08/21 01:25:33;;;;;;;6.90;5.45;;;;;;;22.56;70.21;94988.69;5089380;28;20275;-43
2023/08/21 01:28:00;;;;;;;6.60;5.30;;;;;;;22.58;70.25;94994.50;5089322;28;20197;-43
2023/08/21 01:30:32;;;;;;;6.80;5.20;;;;;;;22.57;70.13;94991.09;5089391;28;20201;-44
2023/08/21 01:33:06;;;;;;;8.25;5.30;;;;;;;22.54;70.43;94992.31;5089610;28;20240;-43
2023/08/21 01:35:35;;;;;;;9.60;6.03;;;;;;;22.54;70.43;94991.50;5089228;28;20265;-44
2023/08/21 01:38:03;;;;;;;5.60;5.10;;;;;;;22.53;70.82;94989.88;5089422;28;20272;-43
2023/08/21 01:40:29;;;;;;;6.50;4.97;;;;;;;22.53;70.87;94992.50;5089357;28;20181;-43
2023/08/21 01:42:57;;;;;;;6.22;5.32;;;;;;;22.51;71.01;94994.53;5089041;28;20217;-42
2023/08/21 01:45:25;;;;;;;6.53;5.63;;;;;;;22.49;71.29;94994.69;5088926;28;20231;-44
2023/08/21 01:47:52;;;;;;;5.90;5.40;;;;;;;22.48;71.35;94994.91;5089127;28;20201;-43
2023/08/21 01:50:18;;;;;;;5.72;4.82;;;;;;;22.46;71.48;94987.31;5089250;28;20228;-43
2023/08/21 01:52:45;;;;;;;7.25;5.70;;;;;;;22.45;71.38;94990.09;5089088;28;20189;-43
2023/08/21 01:55:12;;;;;;;7.68;6.28;;;;;;;22.42;71.56;94988.72;5089313;28;20182;-44
2023/08/21 01:57:39;;;;;;;6.07;5.47;;;;;;;22.37;71.75;94985.94;5088985;28;20239;-43
2023/08/21 02:00:09;;;;;;;5.53;5.03;;;;;;;22.35;72.12;94987.94;5089322;28;20491;-44
2023/08/21 02:02:36;;;;;;;8.73;5.13;;;;;;;22.33;72.00;94989.94;5089086;28;20310;-44
2023/08/21 02:05:03;;;;;;;9.73;5.88;;;;;;;22.30;72.20;94987.75;5088959;28;20259;-44
2023/08/21 02:07:30;;;;;;;7.60;5.47;;;;;;;22.27;72.33;94985.53;5089112;28;20251;-42
2023/08/21 02:09:57;;;;;;;6.43;5.78;;;;;;;22.24;72.46;94989.34;5089221;28;20190;-43
2023/08/21 02:12:25;;;;;;;5.72;5.22;;;;;;;22.23;72.73;94984.31;5088619;28;20184;-43
2023/08/21 02:14:52;;;;;;;9.50;5.47;;;;;;;22.19;73.03;94983.13;5088827;28;20190;-44
2023/08/21 02:17:20;;;;;;;9.07;5.43;;;;;;;22.16;73.37;94986.97;5088837;28;20262;-43
2023/08/21 02:19:46;;;;;;;5.95;5.35;;;;;;;22.14;73.31;94988.16;5090453;28;20189;-42
2023/08/21 02:22:13;;;;;;;6.13;5.40;;;;;;;22.14;73.35;94982.94;5088683;28;20229;-42
2023/08/21 02:24:40;;;;;;;5.80;5.30;;;;;;;21.65;73.67;94909.44;5089060;28;20216;-43
2023/08/21 02:27:07;;;;;;;7.78;5.90;;;;;;;22.09;73.91;94987.94;5088861;28;20652;-42
2023/08/21 02:29:33;;;;;;;5.90;5.30;;;;;;;22.02;73.96;94980.94;5088638;28;20190;-43
2023/08/21 02:32:00;;;;;;;8.00;5.50;;;;;;;22.04;74.18;94986.72;5088443;28;20221;-44
2023/08/21 02:34:28;;;;;;;5.78;5.25;;;;;;;22.02;74.34;94985.31;5088843;28;20657;-43
2023/08/21 02:36:55;;;;;;;6.38;5.78;;;;;;;22.00;74.58;94988.13;5088915;28;20198;-43
2023/08/21 02:39:22;;;;;;;6.50;5.85;;;;;;;21.96;74.73;94978.31;5089905;28;20185;-45
2023/08/21 02:41:49;;;;;;;6.63;5.13;;;;;;;21.98;74.58;94984.13;5092361;28;20615;-45
2023/08/21 02:44:15;;;;;;;6.05;5.47;;;;;;;21.95;74.79;94974.91;5091836;28;20661;-43
2023/08/21 02:46:42;;;;;;;10.57;5.90;;;;;;;21.94;75.17;94981.13;5092247;28;20194;-43
2023/08/21 02:49:09;;;;;;;5.95;5.35;;;;;;;21.92;75.22;94987.53;5092246;28;20190;-43
2023/08/21 02:51:37;;;;;;;7.40;5.97;;;;;;;21.74;75.17;94967.31;5092731;28;20250;-43
2023/08/21 02:54:04;;;;;;;6.40;5.65;;;;;;;21.87;75.27;94988.13;5092017;28;20218;-44
2023/08/21 02:56:30;;;;;;;7.10;5.35;;;;;;;21.81;75.55;94985.53;5092400;28;20182;-43
2023/08/21 02:58:57;;;;;;;6.43;5.63;;;;;;;21.81;75.77;94990.75;5091830;28;20534;-42
2023/08/21 03:01:24;;;;;;;6.93;5.88;;;;;;;21.79;75.73;94991.72;5091580;28;20702;-43
2023/08/21 03:03:51;;;;;;;6.78;5.82;;;;;;;21.76;75.77;94986.94;5092144;28;20247;-44
2023/08/21 03:06:18;;;;;;;6.72;5.22;;;;;;;21.74;76.05;94982.94;5092223;28;20555;-44
2023/08/21 03:08:46;;;;;;;6.28;5.68;;;;;;;21.70;76.17;94990.31;5092102;28;20194;-44
2023/08/21 03:11:13;;;;;;;7.68;5.75;;;;;;;21.71;76.27;94994.53;5091350;28;20194;-45
2023/08/21 03:13:41;;;;;;;9.48;5.68;;;;;;;21.70;76.62;94998.13;5091578;28;20202;-44
2023/08/21 03:16:07;;;;;;;8.38;5.95;;;;;;;21.62;76.65;94994.91;5091267;28;20182;-43
2023/08/21 03:18:54;;;;;;;9.75;6.70;;;;;;;21.69;76.31;95006.94;5091724;28;20182;-45
2023/08/21 03:21:22;;;;;;;9.60;6.03;;;;;;;21.66;76.66;95002.13;5091206;28;20858;-44
2023/08/21 03:23:51;;;;;;;8.68;5.90;;;;;;;21.54;76.65;94995.91;5092000;28;20189;-44
2023/08/21 03:26:18;;;;;;;11.00;6.90;;;;;;;21.62;76.63;95011.34;5091135;28;20193;-43
2023/08/21 03:28:45;;;;;;;9.77;6.38;;;;;;;21.60;76.65;95010.75;5091428;28;20634;-43
2023/08/21 03:31:12;;;;;;;10.77;6.85;;;;;;;21.53;76.68;95000.31;5090980;28;20240;-42
2023/08/21 03:33:38;;;;;;;10.70;6.72;;;;;;;21.57;76.88;95013.75;5091610;28;20189;-43
2023/08/21 03:36:05;;;;;;;9.20;5.90;;;;;;;21.56;76.87;95011.34;5091293;28;20197;-42
2023/08/21 03:38:32;;;;;;;14.65;6.70;;;;;;;21.56;76.87;95011.34;5091376;28;20182;-43
2023/08/21 03:41:00;;;;;;;11.98;6.07;;;;;;;21.57;76.56;95021.53;5090936;28;20202;-44
2023/08/21 03:43:27;;;;;;;10.70;6.78;;;;;;;21.34;76.60;94976.88;5091379;28;20229;-45
2023/08/21 03:45:54;;;;;;;15.25;6.32;;;;;;;21.52;76.53;95013.53;5090841;28;20190;-44
2023/08/21 03:48:22;;;;;;;7.60;6.60;;;;;;;21.52;76.60;95011.72;5090907;28;20189;-42
2023/08/21 03:50:49;;;;;;;15.63;6.53;;;;;;;21.54;76.53;95009.75;5090256;28;20280;-43
2023/08/21 03:53:16;;;;;;;12.07;6.72;;;;;;;21.55;76.64;95010.53;5090501;28;20185;-43
2023/08/21 03:55:43;;;;;;;12.30;7.55;;;;;;;21.57;76.56;95005.94;5090871;28;20607;-43
2023/08/21 03:58:11;;;;;;;11.57;7.07;;;;;;;21.58;76.41;95012.72;5090574;28;20193;-44
2023/08/21 04:00:38;;;;;;;10.52;6.65;;;;;;;21.58;76.27;95009.34;5091309;28;20576;-44
2023/08/21 04:03:05;;;;;;;9.95;7.13;;;;;;;21.59;76.18;95010.94;5090547;28;20217;-45
2023/08/21 04:05:32;;;;;;;12.18;6.35;;;;;;;21.63;76.20;95017.34;5090673;28;20189;-42
2023/08/21 04:07:58;;;;;;;20.42;7.57;;;;;;;21.65;76.03;95021.38;5090445;28;20665;-42
2023/08/21 04:10:25;;;;;;;13.95;7.05;;;;;;;21.72;75.93;95013.56;5090331;28;20190;-44
2023/08/21 04:12:52;;;;;;;14.00;6.57;;;;;;;21.76;75.70;95023.41;5092257;28;20189;-44
2023/08/21 04:15:20;;;;;;;10.05;6.35;;;;;;;21.79;75.56;95022.97;5090559;28;20291;-42
2023/08/21 04:17:47;;;;;;;14.10;6.35;;;;;;;21.85;75.14;95029.22;5090259;28;20730;-43
2023/08/21 04:20:13;;;;;;;16.13;6.65;;;;;;;21.90;74.99;95024.19;5090343;28;20200;-43
2023/08/21 04:22:40;;;;;;;13.70;7.25;;;;;;;21.93;74.71;95022.97;5090423;28;20700;-44
2023/08/21 04:25:07;;;;;;;18.58;7.13;;;;;;;21.97;74.55;95030.19;5090220;28;20194;-42
2023/08/21 04:27:34;;;;;;;12.77;6.72;;;;;;;22.03;74.41;95023.41;5090627;28;20228;-44
2023/08/21 04:30:01;;;;;;;12.73;6.68;;;;;;;22.10;74.10;95034.59;5090362;28;20193;-43
2023/08/21 04:32:30;;;;;;;11.50;7.30;;;;;;;22.14;73.68;95030.63;5090143;28;20221;-44
2023/08/21 04:34:57;;;;;;;22.30;6.93;;;;;;;22.18;73.41;95031.03;5090280;28;20213;-44
2023/08/21 04:37:24;;;;;;;9.77;6.93;;;;;;;22.23;73.15;95020.81;5090239;28;20194;-44
2023/08/21 04:39:51;;;;;;;10.85;6.22;;;;;;;22.38;72.94;95028.44;5090265;28;20189;-43
2023/08/21 04:42:18;;;;;;;13.98;6.57;;;;;;;22.53;72.56;95029.00;5089913;28;20684;-42
2023/08/21 04:44:45;;;;;;;9.82;6.35;;;;;;;22.71;71.73;95016.13;5089472;28;20205;-41
2023/08/21 04:47:22;;;;;;;11.30;6.70;;;;;;;23.04;71.13;95031.69;5090077;28;20193;-44
2023/08/21 04:49:51;;;;;;;10.82;6.30;;;;;;;23.29;70.22;95036.22;5090380;28;20489;-44
2023/08/21 04:52:17;;;;;;;12.98;6.40;;;;;;;23.59;69.38;95028.63;5089934;28;20182;-44
2023/08/21 04:54:44;;;;;;;12.90;6.90;;;;;;;23.73;67.90;95032.78;5089878;28;20186;-44
2023/08/21 04:57:11;;;;;;;12.77;6.80;;;;;;;23.84;67.08;95027.91;5089889;28;20209;-44
2023/08/21 04:59:39;;;;;;;14.68;6.95;;;;;;;23.97;66.48;95043.47;5089902;28;20657;-45
2023/08/21 05:02:06;;;;;;;12.05;5.78;;;;;;;23.99;65.98;95031.78;5089762;28;20224;-43
2023/08/21 05:04:33;;;;;;;9.85;7.03;;;;;;;24.17;65.43;95051.94;5089718;28;20661;-43
2023/08/21 05:07:01;;;;;;;11.20;6.97;;;;;;;24.19;65.01;95049.94;5089786;28;20258;-43
2023/08/21 05:09:28;;;;;;;12.07;6.45;;;;;;;24.21;64.83;95052.34;5089737;28;20197;-42
2023/08/21 05:11:55;;;;;;;13.52;8.18;;;;;;;24.27;64.49;95048.88;5089623;28;20250;-42
2023/08/21 05:14:22;;;;;;;13.77;8.57;;;;;;;24.32;64.71;95050.84;5089703;28;20190;-45
2023/08/21 05:16:49;;;;;;;13.32;7.78;;;;;;;24.40;64.19;95059.25;5089527;28;20657;-44
2023/08/21 05:19:16;;;;;;;16.75;8.40;;;;;;;24.43;63.88;95063.25;5089964;28;20239;-46
2023/08/21 05:21:43;;;;;;;12.13;7.38;;;;;;;24.62;63.96;95064.09;5089489;28;20194;-40
2023/08/21 05:24:11;;;;;;;14.68;8.55;;;;;;;24.78;63.19;95068.75;5089849;28;20213;-44
2023/08/21 05:26:39;;;;;;;15.23;8.55;;;;;;;25.00;62.24;95059.47;5089879;28;20189;-44
2023/08/21 05:29:06;;;;;;;14.45;8.13;;;;;;;25.30;61.27;95063.16;5089535;28;20193;-43
2023/08/21 05:31:33;;;;;;;15.65;8.48;;;;;;;25.55;61.10;95060.44;5089142;28;20282;-43
2023/08/21 05:33:59;;;;;;;14.73;8.07;;;;;;;25.75;60.48;95063.59;5089692;28;20182;-43
2023/08/21 05:36:26;;;;;;;13.45;7.93;;;;;;;25.96;59.71;95063.13;5089628;28;20623;-42
2023/08/21 05:38:53;;;;;;;17.80;7.93;;;;;;;26.25;58.52;95061.47;5089972;28;20634;-46
2023/08/21 05:41:21;;;;;;;13.27;7.75;;;;;;;26.50;57.90;95055.22;5089611;28;20208;-42
2023/08/21 05:43:48;;;;;;;18.70;8.10;;;;;;;26.67;57.73;95055.34;5089265;28;20700;-45
2023/08/21 05:46:15;;;;;;;15.68;8.35;;;;;;;26.91;56.78;95056.13;5089385;28;20280;-44
2023/08/21 05:48:42;;;;;;;17.85;7.75;;;;;;;26.98;55.97;95027.91;5089402;28;20189;-43
2023/08/21 05:51:09;;;;;;;26.10;10.27;;;;;;;27.36;54.85;95048.41;5089483;28;20190;-44
2023/08/21 05:53:36;;;;;;;20.50;8.30;;;;;;;27.47;54.48;95052.81;5089648;28;20182;-42
2023/08/21 05:56:02;;;;;;;14.77;8.32;;;;;;;27.51;53.92;95048.69;5089765;28;20274;-43
2023/08/21 05:58:32;;;;;;;15.38;7.15;;;;;;;27.65;53.17;95053.66;5089062;28;20193;-43
2023/08/21 06:00:59;;;;;;;13.38;6.40;;;;;;;27.85;53.00;95053.25;5089539;28;20190;-45
2023/08/21 06:03:26;;;;;;;15.70;7.32;;;;;;;27.99;52.41;95052.72;5089117;28;20229;-44
2023/08/21 06:05:53;;;;;;;8.85;6.72;;;;;;;28.00;52.12;95035.13;5090382;28;20186;-45
2023/08/21 06:08:19;;;;;;;7.45;6.22;;;;;;;28.25;51.51;95053.94;5089002;28;20512;-45
2023/08/21 06:10:46;;;;;;;10.02;6.80;;;;;;;28.23;50.62;95058.63;5089520;28;20239;-44
2023/08/21 06:13:13;;;;;;;13.05;6.22;;;;;;;28.24;51.03;95062.06;5088991;28;20201;-43
2023/08/21 06:15:44;;;;;;;8.25;6.43;;;;;;;28.48;50.46;95066.16;5092951;28;20182;-44
2023/08/21 06:18:11;;;;;;;13.90;7.35;;;;;;;28.78;49.84;95054.47;5092946;28;20193;-44
2023/08/21 06:20:38;;;;;;;10.43;6.85;;;;;;;29.04;48.89;95062.75;5092758;28;20190;-44
2023/08/21 06:23:05;;;;;;;12.45;5.97;;;;;;;29.25;48.42;95064.59;5092971;28;20298;-43
2023/08/21 06:25:33;;;;;;;13.50;6.90;;;;;;;29.46;48.32;95061.13;5092543;28;20326;-43
2023/08/21 06:28:00;;;;;;;7.70;5.72;;;;;;;29.72;47.02;95061.44;5093282;28;20193;-44
2023/08/21 06:30:27;;;;;;;11.18;6.03;;;;;;;29.93;46.46;95067.72;5092325;28;20620;-41
2023/08/21 06:32:55;;;;;;;11.02;6.20;;;;;;;30.01;46.14;95067.28;5092736;28;20186;-43
2023/08/21 06:35:22;;;;;;;10.07;5.95;;;;;;;30.10;45.96;95073.69;5092489;28;20190;-43
2023/08/21 06:37:49;;;;;;;12.45;6.55;;;;;;;30.12;45.60;95066.28;5092577;28;20193;-44
2023/08/21 06:40:16;;;;;;;10.90;5.95;;;;;;;30.13;45.48;95067.09;5092527;28;20196;-43
2023/08/21 06:42:42;;;;;;;9.60;5.38;;;;;;;30.20;45.13;95070.34;5092550;28;20220;-44
2023/08/21 06:45:10;;;;;;;13.80;5.32;;;;;;;30.37;45.02;95076.28;5092173;28;20722;-44
2023/08/21 06:47:36;;;;;;;8.27;5.88;;;;;;;30.49;44.33;95074.28;5092350;28;20193;-44
2023/08/21 06:50:05;;;;;;;14.73;5.45;;;;;;;30.67;44.35;95081.00;5092111;28;20194;-43
2023/08/21 06:52:32;;;;;;;7.78;5.38;;;;;;;30.64;44.68;95056.94;5092345;28;20189;-44
2023/08/21 06:54:59;;;;;;;10.63;5.72;;;;;;;30.79;44.39;95082.69;5092103;28;20576;-45
2023/08/21 06:57:25;;;;;;;11.30;6.72;;;;;;;30.71;44.58;95076.81;5092164;28;20539;-44
2023/08/21 06:59:52;;;;;;;20.92;7.20;;;;;;;30.83;45.09;95075.81;5092112;28;20259;-44
2023/08/21 07:02:19;;;;;;;14.13;6.47;;;;;;;31.13;44.22;95065.44;5091940;28;20602;-42
2023/08/21 07:04:46;;;;;;;9.00;5.55;;;;;;;31.35;43.48;95067.94;5092114;28;20600;-44
2023/08/21 07:07:14;;;;;;;13.48;5.97;;;;;;;31.51;43.39;95070.63;5091717;28;20652;-45
2023/08/21 07:09:41;;;;;;;17.65;5.95;;;;;;;31.64;43.15;95072.78;5092320;28;20199;-45
2023/08/21 07:12:08;;;;;;;12.20;5.68;;;;;;;31.76;42.78;95054.03;5091893;28;20193;-45
2023/08/21 07:14:34;;;;;;;12.10;5.18;;;;;;;32.07;42.53;95066.25;5091897;28;20189;-43
2023/08/21 07:17:01;;;;;;;9.52;6.15;;;;;;;32.45;41.70;95067.63;5091728;28;20190;-44
2023/08/21 07:19:28;;;;;;;10.93;5.43;;;;;;;32.64;41.23;95070.53;5091782;28;20190;-43
2023/08/21 07:21:55;;;;;;;9.38;5.20;;;;;;;32.82;41.00;95077.13;5092051;28;20185;-44
2023/08/21 07:24:23;;;;;;;10.07;5.68;;;;;;;33.02;40.75;95064.91;5091824;28;20220;-44
2023/08/21 07:26:50;;;;;;;13.90;5.50;;;;;;;33.18;39.75;95067.25;5091323;28;20557;-46
2023/08/21 07:29:16;;;;;;;9.50;4.50;;;;;;;33.16;39.96;95065.91;5091961;28;20565;-44
2023/08/21 07:31:43;;;;;;;9.80;4.68;;;;;;;33.46;39.63;95070.31;5091577;28;20732;-44
2023/08/21 07:34:10;;;;;;;7.72;5.45;;;;;;;33.61;39.01;95064.97;5091345;28;20205;-45
2023/08/21 07:36:36;;;;;;;10.30;4.95;;;;;;;33.70;38.44;95063.31;5091485;28;20654;-45
2023/08/21 07:39:03;;;;;;;7.45;5.05;;;;;;;33.78;38.36;95069.13;5091609;28;20186;-44
2023/08/21 07:41:31;;;;;;;6.93;4.97;;;;;;;33.93;38.00;95069.00;5091622;28;20189;-44
2023/08/21 07:43:58;;;;;;;8.27;4.72;;;;;;;34.18;37.59;95066.22;5091496;28;20290;-44
2023/08/21 07:46:25;;;;;;;10.15;5.18;;;;;;;34.35;37.13;95068.47;5091542;28;20266;-45
2023/08/21 07:48:53;;;;;;;10.80;5.10;;;;;;;34.27;37.20;95066.41;5091214;28;20209;-44
2023/08/21 07:51:20;;;;;;;5.93;4.97;;;;;;;34.11;37.74;95068.41;5091257;28;20246;-45
2023/08/21 07:53:47;;;;;;;9.82;4.72;;;;;;;34.31;37.96;95061.34;5091264;28;20190;-45
2023/08/21 07:56:13;;;;;;;9.98;5.05;;;;;;;34.45;37.18;95047.13;5091346;28;20186;-46
2023/08/21 07:58:42;;;;;;;10.05;4.97;;;;;;;34.57;36.58;95059.28;5092728;28;20201;-45
2023/08/21 08:01:08;;;;;;;6.53;4.55;;;;;;;34.58;36.47;95060.84;5091304;28;20661;-44
2023/08/21 08:03:35;;;;;;;6.97;4.60;;;;;;;34.52;36.65;95057.47;5090402;28;20313;-45
2023/08/21 08:06:02;;;;;;;9.05;4.55;;;;;;;34.66;36.51;95057.59;5091084;28;20246;-44
2023/08/21 08:08:29;;;;;;;8.35;5.40;;;;;;;34.80;36.16;95061.16;5090893;28;20242;-44
2023/08/21 08:10:56;;;;;;;6.90;4.90;;;;;;;34.91;36.08;95054.69;5090792;28;20212;-44
2023/08/21 08:13:24;;;;;;;8.32;4.70;;;;;;;35.04;35.44;95058.56;5091188;28;20209;-45
2023/08/21 08:15:52;;;;;;;7.28;5.55;;;;;;;35.04;35.64;95053.25;5090923;28;20186;-45
2023/08/21 08:18:19;;;;;;;4.43;4.03;;;;;;;35.18;35.25;95054.13;5090847;28;20191;-44
2023/08/21 08:20:46;;;;;;;11.07;5.03;;;;;;;35.35;35.42;95044.91;5090575;28;20879;-49
2023/08/21 08:23:13;;;;;;;4.72;4.22;;;;;;;35.47;35.05;95050.63;5090779;28;20220;-45
2023/08/21 08:25:40;;;;;;;4.88;4.47;;;;;;;35.38;34.96;95045.13;5090466;28;20194;-43
2023/08/21 08:28:07;;;;;;;5.40;4.38;;;;;;;35.28;34.87;95050.56;5090874;28;20185;-44
2023/08/21 08:30:35;;;;;;;7.68;4.93;;;;;;;35.04;35.27;95053.25;5089970;28;20235;-44
2023/08/21 08:33:03;;;;;;;13.45;4.75;;;;;;;34.86;35.49;95048.63;5090604;28;20254;-44
2023/08/21 08:35:30;;;;;;;8.00;4.72;;;;;;;34.69;35.57;95039.22;5090140;28;20668;-44
2023/08/21 08:37:56;;;;;;;8.75;4.60;;;;;;;34.65;35.83;95045.38;5089821;28;20619;-44
2023/08/21 08:40:23;;;;;;;5.82;4.95;;;;;;;34.58;35.91;95044.91;5090292;28;20564;-45
2023/08/21 08:42:50;;;;;;;8.70;4.25;;;;;;;34.46;35.82;95029.34;5090329;28;20197;-43
2023/08/21 08:45:30;;;;;;;8.57;4.95;;;;;;;34.27;36.40;95034.53;5089980;28;20225;-44
2023/08/21 08:47:58;;;;;;;7.20;4.97;;;;;;;34.19;36.38;95027.16;5090545;28;20193;-46
2023/08/21 08:50:29;;;;;;;6.53;5.10;;;;;;;34.31;36.51;95026.81;5090274;28;20201;-46
2023/08/21 08:52:58;;;;;;;8.25;5.07;;;;;;;34.42;36.23;95026.44;5090159;28;20277;-44
2023/08/21 08:55:25;;;;;;;5.95;5.13;;;;;;;34.60;35.49;95032.16;5090210;28;20186;-44
2023/08/21 08:57:52;;;;;;;5.35;4.50;;;;;;;34.50;35.00;95025.09;5090116;28;20181;-45
2023/08/21 09:00:20;;;;;;;5.90;4.25;;;;;;;34.41;35.29;95011.59;5089617;28;20193;-45
2023/08/21 09:02:47;;;;;;;6.13;4.78;;;;;;;34.37;35.19;95005.25;5089713;28;20214;-44
2023/08/21 09:05:14;;;;;;;5.90;4.18;;;;;;;34.54;35.30;95018.09;5090123;28;20223;-44
2023/08/21 09:07:43;;;;;;;5.85;4.63;;;;;;;34.72;35.22;95026.44;5089619;28;20250;-43
2023/08/21 09:10:14;;;;;;;5.20;4.22;;;;;;;34.93;34.72;95030.47;5089972;28;20710;-44
2023/08/21 09:12:41;;;;;;;6.30;5.20;;;;;;;34.95;34.50;95025.66;5089451;28;20669;-43
2023/08/21 09:15:09;;;;;;;5.57;4.78;;;;;;;34.93;34.68;95004.69;5089970;28;20190;-45
2023/08/21 09:17:36;;;;;;;5.07;4.57;;;;;;;35.21;34.04;95020.09;5089561;28;20209;-44
2023/08/21 09:20:07;;;;;;;7.00;4.32;;;;;;;35.26;33.84;95015.47;5089798;28;20606;-44
2023/08/21 09:22:34;;;;;;;5.35;4.05;;;;;;;35.25;33.69;95018.44;5089536;28;20193;-44
2023/08/21 09:25:06;;;;;;;4.75;4.28;;;;;;;35.22;33.88;95011.03;5089614;28;20345;-44
2023/08/21 09:27:34;;;;;;;9.20;4.97;;;;;;;35.25;33.75;95011.25;5089535;28;20182;-45
2023/08/21 09:30:02;;;;;;;8.93;4.18;;;;;;;35.28;33.77;95002.69;5089560;28;20284;-44
2023/08/21 09:32:29;;;;;;;5.18;4.22;;;;;;;35.28;33.70;94993.91;5089155;28;20229;-45
2023/08/21 09:34:56;;;;;;;7.03;4.75;;;;;;;35.32;33.88;95001.06;5089902;28;20189;-44
2023/08/21 09:37:29;;;;;;;6.78;4.68;;;;;;;35.34;33.85;94992.78;5089515;28;20193;-45
2023/08/21 09:40:05;;;;;;;9.30;4.97;;;;;;;35.20;34.46;95000.69;5089508;28;20647;-46
2023/08/21 09:42:31;;;;;;;5.10;4.53;;;;;;;35.25;33.59;94999.81;5089244;28;20185;-43
2023/08/21 09:44:58;;;;;;;9.77;4.82;;;;;;;35.14;33.42;95005.25;5089427;28;20229;-44
2023/08/21 09:47:27;;;;;;;6.55;4.70;;;;;;;35.02;33.15;94969.50;5089981;28;20189;-46
2023/08/21 09:49:54;;;;;;;6.05;3.92;;;;;;;35.15;33.38;94996.22;5094481;28;20204;-44
2023/08/21 09:52:21;;;;;;;4.93;4.43;;;;;;;35.05;33.32;94985.69;5093631;28;20572;-44
2023/08/21 09:54:49;;;;;;;6.88;4.28;;;;;;;34.98;33.40;94998.56;5093511;28;20607;-45
2023/08/21 09:57:17;;;;;;;4.82;4.10;;;;;;;34.85;33.44;94984.06;5093650;28;20641;-45
2023/08/21 09:59:44;;;;;;;5.25;4.05;;;;;;;34.81;33.71;94979.59;5093202;28;20198;-43
2023/08/21 10:02:12;;;;;;;4.70;3.90;;;;;;;34.79;33.84;94987.03;5093843;28;20641;-45
2023/08/21 10:04:42;;;;;;;4.47;4.00;;;;;;;34.65;33.47;94979.75;5093473;28;20224;-43
2023/08/21 10:07:09;;;;;;;5.68;4.60;;;;;;;34.56;33.61;94975.34;5093531;28;20657;-44
2023/08/21 10:09:38;;;;;;;9.80;4.43;;;;;;;34.49;33.81;94980.19;5093371;28;20193;-44
2023/08/21 10:12:06;;;;;;;7.32;3.92;;;;;;;34.54;33.58;94975.59;5093309;28;20185;-44
2023/08/21 10:14:35;;;;;;;5.47;4.15;;;;;;;34.39;33.64;94973.88;5092778;28;20201;-45
2023/08/21 10:17:02;;;;;;;5.10;4.45;;;;;;;34.37;33.23;94977.88;5093456;28;20185;-43
2023/08/21 10:19:32;;;;;;;9.00;3.85;;;;;;;33.99;34.19;94969.75;5092744;28;20659;-45
2023/08/21 10:21:59;;;;;;;6.75;3.72;;;;;;;33.73;34.31;94974.44;5093142;28;20348;-45
2023/08/21 10:24:33;;;;;;;7.47;4.38;;;;;;;33.59;34.28;94970.78;5092654;28;20225;-43
2023/08/21 10:27:00;;;;;;;6.38;4.38;;;;;;;33.61;34.57;94961.50;5093155;28;20189;-46
2023/08/21 10:29:27;;;;;;;8.13;4.38;;;;;;;33.77;34.56;94953.44;5092560;28;20596;-45
2023/08/21 10:32:02;;;;;;;4.05;3.60;;;;;;;33.93;34.23;94954.88;5092702;28;20229;-43
2023/08/21 10:34:33;;;;;;;5.35;4.72;;;;;;;33.95;34.37;94947.44;5092665;28;20193;-44
2023/08/21 10:37:09;;;;;;;6.85;4.20;;;;;;;33.98;33.94;94954.06;5092780;28;20205;-45
2023/08/21 10:39:37;;;;;;;8.68;4.55;;;;;;;33.97;33.68;94945.31;5092176;28;20182;-44
2023/08/21 10:42:07;;;;;;;6.97;4.93;;;;;;;33.82;34.21;94930.31;5092860;28;20683;-44
2023/08/21 10:44:48;;;;;;;4.70;4.30;;;;;;;33.97;33.88;94939.22;5092341;28;20229;-44
2023/08/21 10:47:18;;;;;;;10.10;4.32;;;;;;;33.99;34.00;94931.78;5092604;28;20186;-45
2023/08/21 10:49:47;;;;;;;6.20;5.00;;;;;;;33.98;33.91;94938.16;5092380;28;20224;-43
2023/08/21 10:52:14;;;;;;;5.90;3.97;;;;;;;33.98;34.33;94930.19;5092794;28;20259;-44
2023/08/21 10:54:45;;;;;;;7.15;4.57;;;;;;;34.11;34.02;94929.53;5092373;28;20197;-44
2023/08/21 10:57:12;;;;;;;5.13;4.00;;;;;;;34.15;34.19;94935.88;5092727;28;20224;-44
2023/08/21 10:59:39;;;;;;;5.90;4.00;;;;;;;34.17;33.77;94933.75;5091456;28;20600;-44
2023/08/21 11:02:06;;;;;;;6.30;4.13;;;;;;;34.34;33.27;94923.47;5092566;28;20193;-45
2023/08/21 11:04:44;;;;;;;5.07;4.05;;;;;;;34.45;32.88;94913.50;5092188;28;20233;-44
2023/08/21 11:07:11;;;;;;;4.38;3.63;;;;;;;34.42;33.12;94920.19;5092636;28;20266;-44
2023/08/21 11:09:38;;;;;;;5.85;4.03;;;;;;;34.36;33.11;94917.88;5091981;28;20200;-44
2023/08/21 11:12:07;;;;;;;4.57;4.03;;;;;;;34.39;33.20;94919.97;5092234;28;20640;-44
2023/08/21 11:14:34;;;;;;;6.40;3.85;;;;;;;34.48;32.68;94910.34;5091597;28;20189;-43
2023/08/21 11:17:01;;;;;;;6.53;4.32;;;;;;;34.50;32.59;94908.19;5092211;28;20251;-44
2023/08/21 11:19:31;;;;;;;8.13;4.07;;;;;;;34.54;31.67;94911.84;5091883;28;20189;-43
2023/08/21 11:22:03;;;;;;;9.30;4.15;;;;;;;34.50;31.40;94908.19;5092241;28;20193;-44
2023/08/21 11:24:42;;;;;;;6.50;3.80;;;;;;;34.59;31.25;94905.72;5091489;28;20805;-44
2023/08/21 11:27:09;;;;;;;6.75;4.20;;;;;;;34.58;31.63;94899.56;5091685;28;20182;-44
2023/08/21 11:29:40;;;;;;;5.55;4.20;;;;;;;34.43;31.59;94881.94;5091643;28;20580;-45
2023/08/21 11:32:14;;;;;;;4.53;4.13;;;;;;;34.50;31.54;94881.63;5091471;28;20607;-45
2023/08/21 11:34:43;;;;;;;4.50;4.15;;;;;;;34.68;31.42;94893.38;5091420;28;20197;-45